Time,TemperatureF,DewpointF,PressureIn,WindDirection,WindDirectionDegrees,WindSpeedMPH,WindSpeedGustMPH,Humidity,HourlyPrecipIn,Conditions,Clouds,dailyrainin,SoftwareType,DateUTC
2013-04-11 00:02:00,36.1,33.1,29.80,WNW,293,1.3,3.8,89,0.01,,,0.00,WUHU216HW,2013-04-11 05:02:00,
2013-04-11 00:07:00,35.9,32.9,29.80,West,270,1.8,3.4,89,0.01,,,0.00,WUHU216HW,2013-04-11 05:07:00,
2013-04-11 00:12:00,35.5,32.5,29.80,West,270,1.8,2.0,89,0.00,,,0.00,WUHU216HW,2013-04-11 05:12:00,
2013-04-11 00:17:00,35.5,32.8,29.80,NW,315,2.2,3.6,90,0.00,,,0.00,WUHU216HW,2013-04-11 05:17:00,
2013-04-11 00:22:00,35.3,32.6,29.80,West,270,4.5,4.5,90,0.00,,,0.00,WUHU216HW,2013-04-11 05:22:00,
2013-04-11 00:27:00,35.2,32.2,29.80,NNW,338,1.1,4.9,89,0.00,,,0.00,WUHU216HW,2013-04-11 05:27:00,
2013-04-11 00:32:00,35.0,32.3,29.80,SSW,203,4.9,6.7,90,0.00,,,0.00,WUHU216HW,2013-04-11 05:32:00,
2013-04-11 00:37:00,34.8,31.8,29.80,SSW,203,4.0,6.7,89,0.00,,,0.00,WUHU216HW,2013-04-11 05:37:00,
2013-04-11 00:42:00,34.6,31.6,29.80,NNW,338,3.6,5.8,89,0.00,,,0.00,WUHU216HW,2013-04-11 05:42:00,
2013-04-11 00:47:00,34.4,31.5,29.80,North,0,2.2,10.1,89,0.00,,,0.00,WUHU216HW,2013-04-11 05:47:00,
2013-04-11 00:52:00,34.4,31.5,29.80,NW,315,2.9,10.1,89,0.00,,,0.00,WUHU216HW,2013-04-11 05:52:00,
2013-04-11 00:57:00,34.4,31.5,29.80,West,270,0.9,2.9,89,0.00,,,0.00,WUHU216HW,2013-04-11 05:57:00,
2013-04-11 01:02:00,34.4,31.5,29.80,West,270,3.4,3.4,89,0.00,,,0.00,WUHU216HW,2013-04-11 06:02:00,
2013-04-11 01:07:00,34.3,31.1,29.79,WNW,293,0.4,3.4,88,0.00,,,0.00,WUHU216HW,2013-04-11 06:07:00,
2013-04-11 01:12:00,34.1,30.9,29.80,SW,225,1.8,2.5,88,0.00,,,0.00,WUHU216HW,2013-04-11 06:12:00,
2013-04-11 01:17:00,34.1,30.9,29.81,WSW,248,2.7,4.7,88,0.00,,,0.00,WUHU216HW,2013-04-11 06:17:00,
2013-04-11 01:22:00,34.1,30.9,29.80,WNW,293,1.6,4.7,88,0.00,,,0.00,WUHU216HW,2013-04-11 06:22:00,
2013-04-11 01:27:00,33.9,30.7,29.81,West,270,2.5,2.5,88,0.00,,,0.00,WUHU216HW,2013-04-11 06:27:00,
2013-04-11 01:32:00,33.9,30.7,29.80,NW,315,3.1,3.1,88,0.00,,,0.00,WUHU216HW,2013-04-11 06:32:00,
2013-04-11 01:37:00,33.9,30.7,29.81,WSW,248,0.9,3.4,88,0.00,,,0.00,WUHU216HW,2013-04-11 06:37:00,
2013-04-11 01:42:00,33.7,30.5,29.81,West,270,5.4,5.4,88,0.00,,,0.00,WUHU216HW,2013-04-11 06:42:00,
2013-04-11 01:47:00,33.9,30.7,29.81,NW,315,3.4,5.4,88,0.00,,,0.00,WUHU216HW,2013-04-11 06:47:00,
2013-04-11 01:52:00,33.7,30.5,29.81,WSW,248,1.1,4.0,88,0.00,,,0.00,WUHU216HW,2013-04-11 06:52:00,
2013-04-11 01:57:00,33.7,30.5,29.81,SW,225,1.1,4.0,88,0.00,,,0.00,WUHU216HW,2013-04-11 06:57:00,
2013-04-11 02:02:00,33.7,30.5,29.80,NW,315,1.6,2.7,88,0.00,,,0.00,WUHU216HW,2013-04-11 07:02:00,
2013-04-11 02:07:00,33.7,30.5,29.80,WSW,248,1.8,2.0,88,0.00,,,0.00,WUHU216HW,2013-04-11 07:07:00,
2013-04-11 02:12:00,33.7,30.8,29.80,WSW,248,0.7,2.5,89,0.00,,,0.00,WUHU216HW,2013-04-11 07:12:00,
2013-04-11 02:17:00,33.7,30.8,29.79,West,270,2.0,2.7,89,0.00,,,0.00,WUHU216HW,2013-04-11 07:17:00,
2013-04-11 02:22:00,33.5,30.3,29.79,WSW,248,0.9,2.7,88,0.00,,,0.00,WUHU216HW,2013-04-11 07:22:00,
2013-04-11 02:27:00,33.5,30.3,29.79,WNW,293,1.3,3.1,88,0.00,,,0.00,WUHU216HW,2013-04-11 07:27:00,
2013-04-11 02:32:00,33.5,30.3,29.78,West,270,1.8,3.6,88,0.00,,,0.00,WUHU216HW,2013-04-11 07:32:00,
2013-04-11 02:37:00,33.5,30.3,29.78,WNW,293,1.1,5.4,88,0.00,,,0.00,WUHU216HW,2013-04-11 07:37:00,
2013-04-11 02:42:00,33.4,30.2,29.77,West,270,0.4,5.8,88,0.00,,,0.00,WUHU216HW,2013-04-11 07:42:00,
2013-04-11 02:47:00,33.4,30.2,29.76,WSW,248,1.8,5.8,88,0.00,,,0.00,WUHU216HW,2013-04-11 07:47:00,
2013-04-11 02:52:00,33.4,30.2,29.76,WNW,293,1.8,2.9,88,0.00,,,0.00,WUHU216HW,2013-04-11 07:52:00,
2013-04-11 02:57:00,33.4,30.2,29.76,WNW,293,1.3,4.0,88,0.00,,,0.00,WUHU216HW,2013-04-11 07:57:00,
2013-04-11 03:02:00,33.4,30.2,29.76,WSW,248,0.4,4.0,88,0.00,,,0.00,WUHU216HW,2013-04-11 08:02:00,
2013-04-11 03:07:00,33.4,30.2,29.75,West,270,2.7,2.7,88,0.00,,,0.00,WUHU216HW,2013-04-11 08:07:00,
2013-04-11 03:12:00,33.4,30.2,29.74,WNW,293,1.8,3.6,88,0.00,,,0.00,WUHU216HW,2013-04-11 08:12:00,
2013-04-11 03:17:00,33.2,30.0,29.74,West,270,2.5,3.6,88,0.00,,,0.00,WUHU216HW,2013-04-11 08:17:00,
2013-04-11 03:22:00,33.2,30.0,29.74,West,270,1.8,3.4,88,0.00,,,0.00,WUHU216HW,2013-04-11 08:22:00,
2013-04-11 03:27:00,33.0,29.8,29.75,West,270,0.4,3.4,88,0.00,,,0.00,WUHU216HW,2013-04-11 08:27:00,
2013-04-11 03:32:00,33.0,29.8,29.75,NNW,338,0.4,3.4,88,0.00,,,0.00,WUHU216HW,2013-04-11 08:32:00,
2013-04-11 03:37:00,33.0,29.8,29.75,NNW,338,2.5,2.7,88,0.00,,,0.00,WUHU216HW,2013-04-11 08:37:00,
2013-04-11 03:43:00,33.0,29.5,29.75,SW,225,3.4,3.4,87,0.00,,,0.00,WUHU216HW,2013-04-11 08:43:00,
2013-04-11 03:48:00,33.0,29.5,29.75,West,270,2.7,3.4,87,0.00,,,0.00,WUHU216HW,2013-04-11 08:48:00,
2013-04-11 03:53:00,32.8,29.3,29.75,NW,315,3.1,3.1,87,0.00,,,0.00,WUHU216HW,2013-04-11 08:53:00,
2013-04-11 03:58:00,32.8,29.3,29.75,SW,225,1.3,3.1,87,0.00,,,0.00,WUHU216HW,2013-04-11 08:58:00,
2013-04-11 04:03:00,32.6,28.8,29.75,NNW,338,7.4,7.4,86,0.00,,,0.00,WUHU216HW,2013-04-11 09:03:00,
2013-04-11 04:08:00,32.6,28.8,29.76,WNW,293,2.2,7.4,86,0.00,,,0.00,WUHU216HW,2013-04-11 09:08:00,
2013-04-11 04:13:00,32.6,28.8,29.75,NNW,338,2.5,5.4,86,0.00,,,0.00,WUHU216HW,2013-04-11 09:13:00,
2013-04-11 04:18:00,32.6,28.8,29.75,WNW,293,1.1,5.4,86,0.00,,,0.00,WUHU216HW,2013-04-11 09:18:00,
2013-04-11 04:23:00,32.6,29.1,29.74,WNW,293,0.4,4.7,87,0.00,,,0.00,WUHU216HW,2013-04-11 09:23:00,
2013-04-11 04:28:00,32.6,29.1,29.74,WNW,293,4.0,5.1,87,0.00,,,0.00,WUHU216HW,2013-04-11 09:28:00,
2013-04-11 04:33:00,32.6,29.1,29.73,West,270,1.1,5.1,87,0.00,,,0.00,WUHU216HW,2013-04-11 09:33:00,
2013-04-11 04:38:00,32.6,29.1,29.75,NW,315,1.1,4.0,87,0.00,,,0.00,WUHU216HW,2013-04-11 09:38:00,
2013-04-11 04:43:00,32.6,29.1,29.75,WNW,293,0.9,2.7,87,0.00,,,0.00,WUHU216HW,2013-04-11 09:43:00,
2013-04-11 04:48:00,32.6,28.8,29.75,NNW,338,0.4,6.9,86,0.00,,,0.00,WUHU216HW,2013-04-11 09:48:00,
2013-04-11 04:53:00,32.6,28.8,29.75,WNW,293,1.8,6.9,86,0.00,,,0.00,WUHU216HW,2013-04-11 09:53:00,
2013-04-11 04:58:00,32.6,28.6,29.74,West,270,1.1,4.7,85,0.00,,,0.00,WUHU216HW,2013-04-11 09:58:00,
2013-04-11 05:03:00,32.5,28.5,29.75,WNW,293,0.4,4.7,85,0.00,,,0.00,WUHU216HW,2013-04-11 10:03:00,
2013-04-11 05:08:00,32.6,28.8,29.75,WSW,248,2.7,4.7,86,0.00,,,0.00,WUHU216HW,2013-04-11 10:08:00,
2013-04-11 05:13:00,32.6,28.8,29.76,SSW,203,1.8,2.7,86,0.00,,,0.00,WUHU216HW,2013-04-11 10:13:00,
2013-04-11 05:18:00,32.6,28.8,29.76,SW,225,1.6,2.5,86,0.00,,,0.00,WUHU216HW,2013-04-11 10:18:00,
2013-04-11 05:23:00,32.6,28.8,29.75,NW,315,0.4,3.4,86,0.00,,,0.00,WUHU216HW,2013-04-11 10:23:00,
2013-04-11 05:28:00,32.5,28.7,29.75,SW,225,1.1,3.4,86,0.00,,,0.00,WUHU216HW,2013-04-11 10:28:00,
2013-04-11 05:33:00,32.6,28.8,29.76,NW,315,0.7,2.5,86,0.00,,,0.00,WUHU216HW,2013-04-11 10:33:00,
2013-04-11 05:38:00,32.5,28.7,29.76,WNW,293,1.6,2.5,86,0.00,,,0.00,WUHU216HW,2013-04-11 10:38:00,
2013-04-11 05:43:00,32.6,28.8,29.76,WSW,248,1.1,3.1,86,0.00,,,0.00,WUHU216HW,2013-04-11 10:43:00,
2013-04-11 05:48:00,32.5,28.7,29.77,West,270,1.3,3.1,86,0.00,,,0.00,WUHU216HW,2013-04-11 10:48:00,
2013-04-11 05:53:00,32.5,28.5,29.76,West,270,1.1,2.5,85,0.00,,,0.00,WUHU216HW,2013-04-11 10:53:00,
2013-04-11 05:58:00,32.5,28.5,29.77,WSW,248,0.7,2.7,85,0.00,,,0.00,WUHU216HW,2013-04-11 10:58:00,
2013-04-11 06:03:00,32.5,28.2,29.77,NNW,338,2.5,6.0,84,0.00,,,0.00,WUHU216HW,2013-04-11 11:03:00,
2013-04-11 06:08:00,32.5,28.2,29.76,NW,315,0.7,6.0,84,0.00,,,0.00,WUHU216HW,2013-04-11 11:08:00,
2013-04-11 06:13:00,32.3,28.0,29.75,WNW,293,0.4,4.0,84,0.00,,,0.00,WUHU216HW,2013-04-11 11:13:00,
2013-04-11 06:18:00,32.3,28.3,29.75,SW,225,5.8,5.8,85,0.00,,,0.00,WUHU216HW,2013-04-11 11:18:00,
2013-04-11 06:23:00,32.3,28.3,29.76,West,270,1.6,5.8,85,0.00,,,0.00,WUHU216HW,2013-04-11 11:23:00,
2013-04-11 06:28:00,32.3,28.0,29.75,SW,225,3.4,3.6,84,0.00,,,0.00,WUHU216HW,2013-04-11 11:28:00,
2013-04-11 06:33:00,32.3,28.0,29.75,WSW,248,0.4,3.4,84,0.00,,,0.00,WUHU216HW,2013-04-11 11:33:00,
2013-04-11 06:38:00,32.1,27.8,29.75,WNW,293,1.6,1.6,84,0.00,,,0.00,WUHU216HW,2013-04-11 11:38:00,
2013-04-11 06:43:00,32.1,27.8,29.75,WNW,293,2.5,2.5,84,0.00,,,0.00,WUHU216HW,2013-04-11 11:43:00,
2013-04-11 06:48:00,32.3,27.7,29.75,West,270,1.8,2.5,83,0.00,,,0.00,WUHU216HW,2013-04-11 11:48:00,
2013-04-11 06:53:00,32.1,27.5,29.75,West,270,0.2,4.0,83,0.00,,,0.00,WUHU216HW,2013-04-11 11:53:00,
2013-04-11 06:58:00,32.1,27.8,29.75,West,270,0.7,4.0,84,0.00,,,0.00,WUHU216HW,2013-04-11 11:58:00,
2013-04-11 07:03:00,32.1,27.5,29.75,SW,225,0.9,4.7,83,0.00,,,0.00,WUHU216HW,2013-04-11 12:03:00,
2013-04-11 07:08:00,32.1,27.8,29.76,SW,225,1.6,4.7,84,0.00,,,0.00,WUHU216HW,2013-04-11 12:08:00,
2013-04-11 07:13:00,32.1,27.5,29.76,WSW,248,3.6,5.4,83,0.00,,,0.00,WUHU216HW,2013-04-11 12:13:00,
2013-04-11 07:18:00,32.1,27.8,29.77,NNW,338,1.6,5.4,84,0.00,,,0.00,WUHU216HW,2013-04-11 12:18:00,
2013-04-11 07:23:00,32.1,27.2,29.76,West,270,1.1,1.6,82,0.00,,,0.00,WUHU216HW,2013-04-11 12:23:00,
2013-04-11 07:28:00,32.1,27.2,29.76,North,0,0.4,3.1,82,0.00,,,0.00,WUHU216HW,2013-04-11 12:28:00,
2013-04-11 07:33:00,32.1,27.2,29.77,WNW,293,0.4,3.1,82,0.00,,,0.00,WUHU216HW,2013-04-11 12:33:00,
2013-04-11 07:38:00,32.1,27.5,29.78,WSW,248,0.9,1.8,83,0.00,,,0.00,WUHU216HW,2013-04-11 12:38:00,
2013-04-11 07:43:00,32.1,27.5,29.78,West,270,1.3,3.4,83,0.00,,,0.00,WUHU216HW,2013-04-11 12:43:00,
2013-04-11 07:48:00,32.1,27.5,29.77,West,270,0.4,3.4,83,0.00,,,0.00,WUHU216HW,2013-04-11 12:48:00,
2013-04-11 07:53:00,32.3,27.7,29.77,SSW,203,3.4,4.3,83,0.00,,,0.00,WUHU216HW,2013-04-11 12:53:00,
2013-04-11 07:58:00,32.3,27.7,29.78,WSW,248,1.6,4.3,83,0.00,,,0.00,WUHU216HW,2013-04-11 12:58:00,
2013-04-11 08:03:00,32.3,27.7,29.78,NW,315,1.8,4.0,83,0.00,,,0.00,WUHU216HW,2013-04-11 13:03:00,
2013-04-11 08:08:00,32.3,27.7,29.77,WNW,293,2.9,4.0,83,0.00,,,0.00,WUHU216HW,2013-04-11 13:08:00,
2013-04-11 08:13:00,32.3,27.4,29.77,WSW,248,1.1,2.9,82,0.00,,,0.00,WUHU216HW,2013-04-11 13:13:00,
2013-04-11 08:18:00,32.3,27.7,29.77,WNW,293,0.7,2.9,83,0.00,,,0.00,WUHU216HW,2013-04-11 13:18:00,
2013-04-11 08:23:00,32.3,27.7,29.76,WNW,293,0.7,2.9,83,0.00,,,0.00,WUHU216HW,2013-04-11 13:23:00,
2013-04-11 08:28:00,32.5,27.9,29.76,SW,225,1.1,1.8,83,0.00,,,0.00,WUHU216HW,2013-04-11 13:28:00,
2013-04-11 08:33:00,32.3,27.4,29.76,WSW,248,1.8,2.5,82,0.00,,,0.00,WUHU216HW,2013-04-11 13:33:00,
2013-04-11 08:38:00,32.3,27.4,29.76,WSW,248,3.4,6.5,82,0.00,,,0.00,WUHU216HW,2013-04-11 13:38:00,
2013-04-11 08:43:00,32.3,27.4,29.76,WSW,248,0.4,6.5,82,0.00,,,0.00,WUHU216HW,2013-04-11 13:43:00,
2013-04-11 08:48:00,32.3,27.4,29.76,WSW,248,1.8,3.6,82,0.00,,,0.00,WUHU216HW,2013-04-11 13:48:00,
2013-04-11 08:53:00,32.3,27.4,29.76,West,270,1.1,3.6,82,0.00,,,0.00,WUHU216HW,2013-04-11 13:53:00,
2013-04-11 08:58:00,32.5,27.6,29.76,SW,225,1.1,3.6,82,0.00,,,0.00,WUHU216HW,2013-04-11 13:58:00,
2013-04-11 09:03:00,32.6,27.7,29.75,WNW,293,0.9,6.5,82,0.00,,,0.00,WUHU216HW,2013-04-11 14:03:00,
2013-04-11 09:08:00,32.6,27.7,29.76,WNW,293,1.8,6.7,82,0.00,,,0.00,WUHU216HW,2013-04-11 14:08:00,
2013-04-11 09:13:00,32.8,27.9,29.76,WSW,248,2.7,6.7,82,0.00,,,0.00,WUHU216HW,2013-04-11 14:13:00,
2013-04-11 09:18:00,32.8,27.6,29.76,West,270,0.7,5.6,81,0.00,,,0.00,WUHU216HW,2013-04-11 14:18:00,
2013-04-11 09:23:00,32.8,27.6,29.76,WSW,248,0.9,5.6,81,0.00,,,0.00,WUHU216HW,2013-04-11 14:23:00,
2013-04-11 09:28:00,32.8,27.9,29.76,West,270,1.3,5.1,82,0.00,,,0.00,WUHU216HW,2013-04-11 14:28:00,
2013-04-11 09:33:00,32.8,27.9,29.76,West,270,3.4,4.0,82,0.00,,,0.00,WUHU216HW,2013-04-11 14:33:00,
2013-04-11 09:38:00,32.6,27.4,29.76,WSW,248,0.9,4.0,81,0.00,,,0.00,WUHU216HW,2013-04-11 14:38:00,
2013-04-11 09:43:00,32.5,27.0,29.76,NW,315,1.6,4.9,80,0.00,,,0.00,WUHU216HW,2013-04-11 14:43:00,
2013-04-11 09:48:00,32.3,26.8,29.75,WSW,248,2.5,4.9,80,0.00,,,0.00,WUHU216HW,2013-04-11 14:48:00,
2013-04-11 09:53:00,32.3,26.8,29.75,West,270,4.5,4.9,80,0.00,,,0.00,WUHU216HW,2013-04-11 14:53:00,
2013-04-11 09:58:00,32.5,27.3,29.74,NW,315,1.1,4.5,81,0.00,,,0.00,WUHU216HW,2013-04-11 14:58:00,
2013-04-11 10:03:00,32.5,27.0,29.75,SW,225,1.3,3.1,80,0.00,,,0.00,WUHU216HW,2013-04-11 15:03:00,
2013-04-11 10:08:00,32.6,27.1,29.76,West,270,0.9,3.1,80,0.00,,,0.00,WUHU216HW,2013-04-11 15:08:00,
2013-04-11 10:13:00,32.6,26.8,29.76,SW,225,5.4,5.4,79,0.00,,,0.00,WUHU216HW,2013-04-11 15:13:00,
2013-04-11 10:18:00,32.5,26.4,29.76,WSW,248,4.7,8.1,78,0.00,,,0.00,WUHU216HW,2013-04-11 15:18:00,
2013-04-11 10:23:00,32.5,26.1,29.75,NW,315,4.0,8.1,77,0.00,,,0.00,WUHU216HW,2013-04-11 15:23:00,
2013-04-11 10:28:00,32.5,26.4,29.76,WSW,248,2.7,8.3,78,0.00,,,0.00,WUHU216HW,2013-04-11 15:28:00,
2013-04-11 10:33:00,32.6,26.5,29.76,WNW,293,1.1,8.3,78,0.00,,,0.00,WUHU216HW,2013-04-11 15:33:00,
2013-04-11 10:38:00,32.6,26.2,29.76,WSW,248,2.7,5.4,77,0.00,,,0.00,WUHU216HW,2013-04-11 15:38:00,
2013-04-11 10:43:00,32.6,25.9,29.76,WNW,293,0.9,6.3,76,0.00,,,0.00,WUHU216HW,2013-04-11 15:43:00,
2013-04-11 10:48:00,32.6,25.9,29.76,WNW,293,1.6,6.3,76,0.00,,,0.00,WUHU216HW,2013-04-11 15:48:00,
2013-04-11 10:53:00,32.8,25.8,29.75,West,270,0.9,7.8,75,0.00,,,0.00,WUHU216HW,2013-04-11 15:53:00,
2013-04-11 10:58:00,33.0,26.0,29.75,West,270,4.7,7.8,75,0.00,,,0.00,WUHU216HW,2013-04-11 15:58:00,
2013-04-11 11:03:00,33.0,26.0,29.75,NW,315,1.6,6.5,75,0.00,,,0.00,WUHU216HW,2013-04-11 16:03:00,
2013-04-11 11:08:00,33.2,26.5,29.75,WSW,248,3.8,6.9,76,0.00,,,0.00,WUHU216HW,2013-04-11 16:08:00,
2013-04-11 11:13:00,33.4,26.4,29.76,SW,225,5.4,6.9,75,0.00,,,0.00,WUHU216HW,2013-04-11 16:13:00,
2013-04-11 11:18:00,33.4,26.4,29.75,SW,225,6.3,6.3,75,0.00,,,0.00,WUHU216HW,2013-04-11 16:18:00,
2013-04-11 11:23:00,33.4,26.4,29.75,WSW,248,3.4,6.3,75,0.00,,,0.00,WUHU216HW,2013-04-11 16:23:00,
2013-04-11 11:28:00,33.5,26.8,29.75,WNW,293,1.3,4.7,76,0.00,,,0.00,WUHU216HW,2013-04-11 16:28:00,
2013-04-11 11:33:00,33.5,26.8,29.76,SW,225,5.8,5.8,76,0.00,,,0.00,WUHU216HW,2013-04-11 16:33:00,
2013-04-11 11:38:00,33.5,26.8,29.76,WSW,248,1.8,5.8,76,0.00,,,0.00,WUHU216HW,2013-04-11 16:38:00,
2013-04-11 11:43:00,33.7,26.7,29.76,NW,315,3.4,3.6,75,0.00,,,0.00,WUHU216HW,2013-04-11 16:43:00,
2013-04-11 11:49:00,34.1,27.0,29.76,SW,225,2.2,4.0,75,0.00,,,0.00,WUHU216HW,2013-04-11 16:49:00,
2013-04-11 11:53:00,34.1,26.7,29.76,SSW,203,1.6,6.3,74,0.00,,,0.00,WUHU216HW,2013-04-11 16:53:00,
2013-04-11 11:59:00,34.3,26.3,29.76,WSW,248,6.0,7.8,72,0.00,,,0.00,WUHU216HW,2013-04-11 16:59:00,
2013-04-11 12:04:00,34.8,26.8,29.75,West,270,2.0,6.0,72,0.00,,,0.00,WUHU216HW,2013-04-11 17:04:00,
2013-04-11 12:09:00,35.0,26.9,29.76,WSW,248,1.8,5.6,72,0.00,,,0.00,WUHU216HW,2013-04-11 17:09:00,
2013-04-11 12:14:00,35.5,27.4,29.76,SW,225,8.7,8.7,72,0.00,,,0.00,WUHU216HW,2013-04-11 17:14:00,
2013-04-11 12:19:00,35.9,27.5,29.75,West,270,2.2,8.7,71,0.00,,,0.00,WUHU216HW,2013-04-11 17:19:00,
2013-04-11 12:24:00,35.9,27.5,29.75,WNW,293,2.7,6.3,71,0.00,,,0.00,WUHU216HW,2013-04-11 17:24:00,
2013-04-11 12:29:00,36.2,27.8,29.75,WSW,248,5.4,6.3,71,0.00,,,0.00,WUHU216HW,2013-04-11 17:29:00,
2013-04-11 12:34:00,36.4,27.6,29.75,SW,225,4.0,6.7,70,0.00,,,0.00,WUHU216HW,2013-04-11 17:34:00,
2013-04-11 12:39:00,36.6,27.5,29.75,WNW,293,4.7,8.7,69,0.00,,,0.00,WUHU216HW,2013-04-11 17:39:00,
2013-04-11 12:44:00,36.6,27.1,29.75,WNW,293,3.1,11.2,68,0.00,,,0.00,WUHU216HW,2013-04-11 17:44:00,
2013-04-11 12:49:00,36.8,27.7,29.74,West,270,2.7,11.2,69,0.00,,,0.00,WUHU216HW,2013-04-11 17:49:00,
2013-04-11 12:54:00,37.1,27.6,29.74,SSW,203,1.1,6.5,68,0.00,,,0.00,WUHU216HW,2013-04-11 17:54:00,
2013-04-11 12:59:00,37.1,27.2,29.74,West,270,4.0,5.6,67,0.00,,,0.00,WUHU216HW,2013-04-11 17:59:00,
2013-04-11 13:04:00,37.3,27.4,29.75,NW,315,1.8,7.6,67,0.00,,,0.00,WUHU216HW,2013-04-11 18:04:00,
2013-04-11 13:09:00,37.5,27.6,29.75,West,270,3.8,7.6,67,0.00,,,0.00,WUHU216HW,2013-04-11 18:09:00,
2013-04-11 13:14:00,38.0,28.1,29.75,WSW,248,8.7,8.7,67,0.00,,,0.00,WUHU216HW,2013-04-11 18:14:00,
2013-04-11 13:19:00,38.0,27.7,29.75,WSW,248,6.3,8.7,66,0.00,,,0.00,WUHU216HW,2013-04-11 18:19:00,
2013-04-11 13:24:00,37.9,27.3,29.75,West,270,1.6,8.1,65,0.00,,,0.00,WUHU216HW,2013-04-11 18:24:00,
2013-04-11 13:29:00,37.9,28.0,29.75,WSW,248,4.5,7.6,67,0.00,,,0.00,WUHU216HW,2013-04-11 18:29:00,
2013-04-11 13:34:00,38.0,28.1,29.75,WSW,248,5.1,8.1,67,0.00,,,0.00,WUHU216HW,2013-04-11 18:34:00,
2013-04-11 13:39:00,38.0,27.4,29.74,West,270,8.5,8.9,65,0.00,,,0.00,WUHU216HW,2013-04-11 18:39:00,
2013-04-11 13:44:00,38.4,27.7,29.74,NNW,338,1.6,8.9,65,0.00,,,0.00,WUHU216HW,2013-04-11 18:44:00,
2013-04-11 13:49:00,38.9,28.2,29.74,SW,225,6.9,6.9,65,0.00,,,0.00,WUHU216HW,2013-04-11 18:49:00,
2013-04-11 13:54:00,39.1,28.4,29.74,NNW,338,2.5,6.9,65,0.00,,,0.00,WUHU216HW,2013-04-11 18:54:00,
2013-04-11 13:59:00,39.1,28.0,29.74,WSW,248,1.1,4.5,64,0.00,,,0.00,WUHU216HW,2013-04-11 18:59:00,
2013-04-11 14:04:00,39.1,28.4,29.74,SW,225,5.4,5.4,65,0.00,,,0.00,WUHU216HW,2013-04-11 19:04:00,
2013-04-11 14:09:00,39.1,28.0,29.74,West,270,1.1,7.4,64,0.00,,,0.00,WUHU216HW,2013-04-11 19:09:00,
2013-04-11 14:14:00,39.5,28.8,29.74,WSW,248,2.5,7.4,65,0.00,,,0.00,WUHU216HW,2013-04-11 19:14:00,
2013-04-11 14:19:00,39.7,29.0,29.74,SW,225,4.0,6.5,65,0.00,,,0.00,WUHU216HW,2013-04-11 19:19:00,
2013-04-11 14:24:00,39.5,28.4,29.74,SW,225,1.6,4.5,64,0.00,,,0.00,WUHU216HW,2013-04-11 19:24:00,
2013-04-11 14:29:00,39.5,28.0,29.74,West,270,3.4,4.5,63,0.00,,,0.00,WUHU216HW,2013-04-11 19:29:00,
2013-04-11 14:34:00,39.3,27.8,29.74,WSW,248,1.1,5.4,63,0.00,,,0.00,WUHU216HW,2013-04-11 19:34:00,
2013-04-11 14:39:00,39.3,28.2,29.74,NW,315,0.9,5.4,64,0.00,,,0.00,WUHU216HW,2013-04-11 19:39:00,
2013-04-11 14:44:00,39.3,28.2,29.74,WSW,248,1.1,3.4,64,0.00,,,0.00,WUHU216HW,2013-04-11 19:44:00,
2013-04-11 14:49:00,39.1,27.6,29.74,SW,225,5.6,5.6,63,0.00,,,0.00,WUHU216HW,2013-04-11 19:49:00,
2013-04-11 14:54:00,38.8,27.4,29.73,North,0,1.1,5.6,63,0.00,,,0.00,WUHU216HW,2013-04-11 19:54:00,
2013-04-11 14:59:00,38.8,27.4,29.73,WNW,293,1.3,5.6,63,0.00,,,0.00,WUHU216HW,2013-04-11 19:59:00,
2013-04-11 15:04:00,39.1,28.0,29.73,WSW,248,4.5,4.5,64,0.00,,,0.00,WUHU216HW,2013-04-11 20:04:00,
2013-04-11 15:09:00,39.3,27.8,29.73,NW,315,1.1,4.5,63,0.00,,,0.00,WUHU216HW,2013-04-11 20:09:00,
2013-04-11 15:14:00,39.3,27.8,29.73,NNW,338,1.1,3.4,63,0.00,,,0.00,WUHU216HW,2013-04-11 20:14:00,
2013-04-11 15:19:00,39.5,27.6,29.72,NNW,338,5.1,5.4,62,0.00,,,0.00,WUHU216HW,2013-04-11 20:19:00,
2013-04-11 15:24:00,39.7,28.2,29.72,WNW,293,0.4,7.6,63,0.00,,,0.00,WUHU216HW,2013-04-11 20:24:00,
2013-04-11 15:29:00,39.8,28.3,29.72,West,270,1.1,7.6,63,0.00,,,0.00,WUHU216HW,2013-04-11 20:29:00,
2013-04-11 15:34:00,40.0,28.5,29.71,WNW,293,3.4,3.8,63,0.00,,,0.00,WUHU216HW,2013-04-11 20:34:00,
2013-04-11 15:39:00,40.2,28.7,29.72,NNW,338,2.5,9.2,63,0.00,,,0.00,WUHU216HW,2013-04-11 20:39:00,
2013-04-11 15:44:00,40.2,27.9,29.71,NW,315,3.6,9.2,61,0.00,,,0.00,WUHU216HW,2013-04-11 20:44:00,
2013-04-11 15:49:00,39.8,27.9,29.71,West,270,4.0,5.1,62,0.00,,,0.00,WUHU216HW,2013-04-11 20:49:00,
2013-04-11 15:54:00,40.2,27.9,29.71,NNW,338,5.4,6.7,61,0.00,,,0.00,WUHU216HW,2013-04-11 20:54:00,
2013-04-11 15:59:00,40.2,27.1,29.71,NW,315,10.3,10.3,59,0.00,,,0.00,WUHU216HW,2013-04-11 20:59:00,
2013-04-11 16:04:00,40.4,28.1,29.71,West,270,0.9,10.3,61,0.00,,,0.00,WUHU216HW,2013-04-11 21:04:00,
2013-04-11 16:09:00,40.6,27.4,29.71,WNW,293,5.4,5.4,59,0.00,,,0.00,WUHU216HW,2013-04-11 21:09:00,
2013-04-11 16:14:00,40.4,27.3,29.71,WSW,248,1.6,6.3,59,0.00,,,0.00,WUHU216HW,2013-04-11 21:14:00,
2013-04-11 16:19:00,40.2,27.1,29.71,West,270,5.4,9.8,59,0.00,,,0.00,WUHU216HW,2013-04-11 21:19:00,
2013-04-11 16:24:00,39.8,26.7,29.71,SW,225,4.3,9.8,59,0.00,,,0.00,WUHU216HW,2013-04-11 21:24:00,
2013-04-11 16:29:00,39.8,27.1,29.71,SSW,203,2.5,5.4,60,0.00,,,0.00,WUHU216HW,2013-04-11 21:29:00,
2013-04-11 16:34:00,39.8,26.7,29.71,WSW,248,1.8,4.3,59,0.00,,,0.00,WUHU216HW,2013-04-11 21:34:00,
2013-04-11 16:39:00,39.8,27.1,29.71,NW,315,3.8,4.0,60,0.00,,,0.00,WUHU216HW,2013-04-11 21:39:00,
2013-04-11 16:44:00,39.8,27.1,29.71,NNW,338,3.8,4.5,60,0.00,,,0.00,WUHU216HW,2013-04-11 21:44:00,
2013-04-11 16:49:00,39.8,27.1,29.71,WSW,248,2.5,4.5,60,0.00,,,0.00,WUHU216HW,2013-04-11 21:49:00,
2013-04-11 16:54:00,39.7,27.0,29.72,NW,315,5.6,5.6,60,0.00,,,0.00,WUHU216HW,2013-04-11 21:54:00,
2013-04-11 16:59:00,39.7,26.6,29.72,WSW,248,2.9,5.6,59,0.00,,,0.00,WUHU216HW,2013-04-11 21:59:00,
2013-04-11 17:04:00,39.5,26.8,29.72,NW,315,2.5,7.2,60,0.00,,,0.00,WUHU216HW,2013-04-11 22:04:00,
2013-04-11 17:09:00,39.1,26.4,29.72,WNW,293,5.1,7.8,60,0.00,,,0.00,WUHU216HW,2013-04-11 22:09:00,
2013-04-11 17:14:00,39.1,26.4,29.72,West,270,3.4,7.8,60,0.00,,,0.00,WUHU216HW,2013-04-11 22:14:00,
2013-04-11 17:19:00,39.1,26.0,29.72,NW,315,2.5,3.4,59,0.00,,,0.00,WUHU216HW,2013-04-11 22:19:00,
2013-04-11 17:24:00,39.1,26.0,29.72,WNW,293,1.8,3.6,59,0.00,,,0.00,WUHU216HW,2013-04-11 22:24:00,
2013-04-11 17:29:00,39.1,26.8,29.72,NW,315,1.8,3.6,61,0.00,,,0.00,WUHU216HW,2013-04-11 22:29:00,
2013-04-11 17:34:00,39.1,26.8,29.72,NW,315,4.5,4.5,61,0.00,,,0.00,WUHU216HW,2013-04-11 22:34:00,
2013-04-11 17:39:00,39.1,26.4,29.72,NW,315,2.9,4.5,60,0.00,,,0.00,WUHU216HW,2013-04-11 22:39:00,
2013-04-11 17:44:00,38.9,26.3,29.72,NNW,338,5.8,5.8,60,0.00,,,0.00,WUHU216HW,2013-04-11 22:44:00,
2013-04-11 17:49:00,38.8,26.2,29.72,WNW,293,2.2,5.8,60,0.00,,,0.00,WUHU216HW,2013-04-11 22:49:00,
2013-04-11 17:54:00,38.8,26.6,29.72,NNW,338,1.1,5.8,61,0.00,,,0.00,WUHU216HW,2013-04-11 22:54:00,
2013-04-11 17:59:00,38.8,26.2,29.72,NNW,338,5.4,5.4,60,0.00,,,0.00,WUHU216HW,2013-04-11 22:59:00,
2013-04-11 18:04:00,38.6,26.0,29.72,NW,315,3.6,6.5,60,0.00,,,0.00,WUHU216HW,2013-04-11 23:04:00,
2013-04-11 18:09:00,38.6,26.0,29.72,SW,225,2.2,6.5,60,0.00,,,0.00,WUHU216HW,2013-04-11 23:09:00,
2013-04-11 18:14:00,38.6,26.4,29.72,WNW,293,2.2,3.6,61,0.00,,,0.00,WUHU216HW,2013-04-11 23:14:00,
2013-04-11 18:19:00,38.6,26.4,29.72,West,270,1.8,5.4,61,0.00,,,0.00,WUHU216HW,2013-04-11 23:19:00,
2013-04-11 18:24:00,38.4,26.2,29.72,West,270,1.3,5.4,61,0.00,,,0.00,WUHU216HW,2013-04-11 23:24:00,
2013-04-11 18:29:00,38.4,26.2,29.72,WNW,293,1.3,4.0,61,0.00,,,0.00,WUHU216HW,2013-04-11 23:29:00,
2013-04-11 18:34:00,38.4,26.2,29.73,NW,315,1.8,4.0,61,0.00,,,0.00,WUHU216HW,2013-04-11 23:34:00,
2013-04-11 18:39:00,38.2,26.0,29.73,NW,315,2.0,6.9,61,0.00,,,0.00,WUHU216HW,2013-04-11 23:39:00,
2013-04-11 18:44:00,38.0,25.8,29.73,West,270,1.1,6.9,61,0.00,,,0.00,WUHU216HW,2013-04-11 23:44:00,
2013-04-11 18:49:00,38.0,26.2,29.73,NNW,338,0.7,5.1,62,0.00,,,0.00,WUHU216HW,2013-04-11 23:49:00,
2013-04-11 18:54:00,37.9,26.1,29.73,WSW,248,0.0,2.9,62,0.00,,,0.00,WUHU216HW,2013-04-11 23:54:00,
2013-04-11 18:59:00,37.9,26.5,29.73,NW,315,0.7,2.9,63,0.00,,,0.00,WUHU216HW,2013-04-11 23:59:00,
2013-04-11 19:04:00,38.0,26.6,29.73,WSW,248,2.5,2.5,63,0.00,,,0.00,WUHU216HW,2013-04-12 00:04:00,
2013-04-11 19:09:00,38.0,26.6,29.74,West,270,1.1,2.5,63,0.00,,,0.00,WUHU216HW,2013-04-12 00:09:00,
2013-04-11 19:14:00,37.9,26.5,29.74,NE,45,0.7,4.0,63,0.00,,,0.00,WUHU216HW,2013-04-12 00:14:00,
2013-04-11 19:19:00,37.9,26.5,29.74,West,270,1.3,4.0,63,0.00,,,0.00,WUHU216HW,2013-04-12 00:19:00,
2013-04-11 19:24:00,37.7,26.7,29.74,WSW,248,2.5,3.4,64,0.00,,,0.00,WUHU216HW,2013-04-12 00:24:00,
2013-04-11 19:29:00,37.7,26.3,29.73,WSW,248,2.7,4.0,63,0.00,,,0.00,WUHU216HW,2013-04-12 00:29:00,
2013-04-11 19:34:00,37.5,26.1,29.73,WNW,293,1.1,4.0,63,0.00,,,0.00,WUHU216HW,2013-04-12 00:34:00,
2013-04-11 19:39:00,37.5,26.5,29.73,WSW,248,1.8,4.9,64,0.00,,,0.00,WUHU216HW,2013-04-12 00:39:00,
2013-04-11 19:44:00,37.3,26.3,29.74,WSW,248,4.7,4.9,64,0.00,,,0.00,WUHU216HW,2013-04-12 00:44:00,
2013-04-11 19:49:00,37.3,25.9,29.74,West,270,0.7,4.7,63,0.00,,,0.00,WUHU216HW,2013-04-12 00:49:00,
2013-04-11 19:54:00,37.1,25.7,29.74,West,270,2.2,4.7,63,0.00,,,0.00,WUHU216HW,2013-04-12 00:54:00,
2013-04-11 19:59:00,37.1,26.1,29.74,WSW,248,1.3,4.0,64,0.00,,,0.00,WUHU216HW,2013-04-12 00:59:00,
2013-04-11 20:04:00,37.1,26.1,29.74,WSW,248,0.4,4.0,64,0.00,,,0.00,WUHU216HW,2013-04-12 01:04:00,
2013-04-11 20:09:00,37.1,26.1,29.75,West,270,1.1,1.3,64,0.00,,,0.00,WUHU216HW,2013-04-12 01:09:00,
2013-04-11 20:14:00,37.0,26.0,29.75,SW,225,1.1,2.2,64,0.00,,,0.00,WUHU216HW,2013-04-12 01:14:00,
2013-04-11 20:19:00,37.0,26.4,29.75,NNW,338,0.9,2.2,65,0.00,,,0.00,WUHU216HW,2013-04-12 01:19:00,
2013-04-11 20:24:00,37.0,26.4,29.75,West,270,0.0,1.1,65,0.00,,,0.00,WUHU216HW,2013-04-12 01:24:00,
2013-04-11 20:29:00,37.0,26.0,29.75,West,270,0.7,4.0,64,0.00,,,0.00,WUHU216HW,2013-04-12 01:29:00,
2013-04-11 20:34:00,37.0,26.0,29.75,West,270,1.1,4.0,64,0.00,,,0.00,WUHU216HW,2013-04-12 01:34:00,
2013-04-11 20:39:00,36.8,25.8,29.75,NW,315,0.9,4.0,64,0.00,,,0.00,WUHU216HW,2013-04-12 01:39:00,
2013-04-11 20:44:00,36.8,25.8,29.75,WSW,248,1.3,1.6,64,0.00,,,0.00,WUHU216HW,2013-04-12 01:44:00,
2013-04-11 20:49:00,36.8,25.8,29.75,WNW,293,0.7,2.0,64,0.00,,,0.00,WUHU216HW,2013-04-12 01:49:00,
2013-04-11 20:54:00,36.8,25.8,29.75,West,270,1.6,2.0,64,0.00,,,0.00,WUHU216HW,2013-04-12 01:54:00,
2013-04-11 20:59:00,36.6,25.6,29.75,NW,315,0.2,1.6,64,0.00,,,0.00,WUHU216HW,2013-04-12 01:59:00,
2013-04-11 21:04:00,36.6,25.6,29.75,WSW,248,3.4,3.4,64,0.00,,,0.00,WUHU216HW,2013-04-12 02:04:00,
2013-04-11 21:09:00,36.6,25.6,29.75,West,270,5.4,5.4,64,0.00,,,0.00,WUHU216HW,2013-04-12 02:09:00,
2013-04-11 21:14:00,36.6,25.6,29.76,WSW,248,0.9,5.4,64,0.00,,,0.00,WUHU216HW,2013-04-12 02:14:00,
2013-04-11 21:19:00,36.6,25.6,29.76,West,270,0.4,3.8,64,0.00,,,0.00,WUHU216HW,2013-04-12 02:19:00,
2013-04-11 21:24:00,36.6,25.6,29.76,West,270,0.7,3.8,64,0.00,,,0.00,WUHU216HW,2013-04-12 02:24:00,
2013-04-11 21:29:00,36.6,26.0,29.76,WSW,248,0.4,2.5,65,0.00,,,0.00,WUHU216HW,2013-04-12 02:29:00,
2013-04-11 21:34:00,36.6,26.0,29.76,West,270,1.8,2.0,65,0.00,,,0.00,WUHU216HW,2013-04-12 02:34:00,
2013-04-11 21:39:00,36.4,25.8,29.76,WNW,293,1.8,2.2,65,0.00,,,0.00,WUHU216HW,2013-04-12 02:39:00,
2013-04-11 21:44:00,36.4,25.8,29.76,WSW,248,0.0,3.6,65,0.00,,,0.00,WUHU216HW,2013-04-12 02:44:00,
2013-04-11 21:49:00,36.4,25.8,29.77,West,270,0.0,3.6,65,0.00,,,0.00,WUHU216HW,2013-04-12 02:49:00,
2013-04-11 21:54:00,36.4,25.8,29.77,WSW,248,0.4,2.2,65,0.00,,,0.00,WUHU216HW,2013-04-12 02:54:00,
2013-04-11 21:59:00,36.4,25.8,29.77,WSW,248,1.1,4.0,65,0.00,,,0.00,WUHU216HW,2013-04-12 02:59:00,
2013-04-11 22:04:00,36.4,25.8,29.77,NW,315,0.7,4.0,65,0.00,,,0.00,WUHU216HW,2013-04-12 03:04:00,
2013-04-11 22:09:00,36.4,25.8,29.77,SW,225,2.2,2.2,65,0.00,,,0.00,WUHU216HW,2013-04-12 03:09:00,
2013-04-11 22:14:00,36.2,25.6,29.77,WSW,248,0.0,2.2,65,0.00,,,0.00,WUHU216HW,2013-04-12 03:14:00,
2013-04-11 22:19:00,36.2,25.6,29.77,NW,315,0.0,1.8,65,0.00,,,0.00,WUHU216HW,2013-04-12 03:19:00,
2013-04-11 22:24:00,36.2,25.6,29.77,WSW,248,0.0,1.8,65,0.00,,,0.00,WUHU216HW,2013-04-12 03:24:00,
2013-04-11 22:29:00,36.2,25.6,29.77,West,270,2.7,2.7,65,0.00,,,0.00,WUHU216HW,2013-04-12 03:29:00,
2013-04-11 22:34:00,36.2,26.0,29.76,WNW,293,0.0,2.7,66,0.00,,,0.00,WUHU216HW,2013-04-12 03:34:00,
2013-04-11 22:39:00,36.1,25.9,29.77,NNW,338,1.8,2.0,66,0.00,,,0.00,WUHU216HW,2013-04-12 03:39:00,
2013-04-11 22:44:00,36.1,25.9,29.77,WNW,293,1.6,2.7,66,0.00,,,0.00,WUHU216HW,2013-04-12 03:44:00,
2013-04-11 22:49:00,35.9,25.7,29.77,West,270,4.3,4.3,66,0.00,,,0.00,WUHU216HW,2013-04-12 03:49:00,
2013-04-11 22:54:00,35.7,25.5,29.77,WSW,248,0.0,4.3,66,0.00,,,0.00,WUHU216HW,2013-04-12 03:54:00,
2013-04-11 22:59:00,35.5,25.3,29.77,SSW,203,0.4,2.7,66,0.00,,,0.00,WUHU216HW,2013-04-12 03:59:00,
2013-04-11 23:00:00,35.5,25.3,29.77,SSW,203,0.4,2.7,66,0.00,,,0.00,WUHU216HW,2013-04-12 04:00:00,
2013-04-11 23:05:00,35.3,25.5,29.76,NW,315,0.2,1.8,67,0.00,,,0.00,WUHU216HW,2013-04-12 04:05:00,
2013-04-11 23:10:00,35.2,25.4,29.76,NW,315,0.9,1.6,67,0.00,,,0.00,WUHU216HW,2013-04-12 04:10:00,
2013-04-11 23:15:00,35.2,25.4,29.76,WNW,293,0.2,1.3,67,0.00,,,0.00,WUHU216HW,2013-04-12 04:15:00,
2013-04-11 23:20:00,35.0,25.2,29.76,NNW,338,3.8,3.8,67,0.00,,,0.00,WUHU216HW,2013-04-12 04:20:00,
2013-04-11 23:25:00,35.0,25.2,29.76,West,270,0.0,3.8,67,0.00,,,0.00,WUHU216HW,2013-04-12 04:25:00,
2013-04-11 23:30:00,35.0,25.2,29.76,NW,315,0.9,1.8,67,0.00,,,0.00,WUHU216HW,2013-04-12 04:30:00,
2013-04-11 23:35:00,35.2,25.4,29.76,WSW,248,0.4,1.8,67,0.00,,,0.00,WUHU216HW,2013-04-12 04:35:00,
2013-04-11 23:40:00,35.2,25.0,29.76,WSW,248,0.9,3.4,66,0.00,,,0.00,WUHU216HW,2013-04-12 04:40:00,
2013-04-11 23:45:00,35.2,25.4,29.76,SW,225,2.7,3.4,67,0.00,,,0.00,WUHU216HW,2013-04-12 04:45:00,
2013-04-11 23:50:00,35.2,25.4,29.76,WSW,248,0.9,3.1,67,0.00,,,0.00,WUHU216HW,2013-04-12 04:50:00,
2013-04-11 23:55:00,35.2,25.0,29.76,NNW,338,1.8,3.1,66,0.00,,,0.00,WUHU216HW,2013-04-12 04:55:00,